sensor_id;sensor_type;location;lat;lon;timestamp;P1;durP1;ratioP1;P2;durP2;ratioP2
39522;SDS011;25202;51.216;6.806;2024-03-22T00:00:19;4.43;;;3.40;;
39522;SDS011;25202;51.216;6.806;2024-03-22T00:02:45;5.18;;;3.80;;
39522;SDS011;25202;51.216;6.806;2024-03-22T00:05:10;5.25;;;3.42;;
39522;SDS011;25202;51.216;6.806;2024-03-22T00:07:36;4.57;;;3.60;;
39522;SDS011;25202;51.216;6.806;2024-03-22T00:10:03;4.30;;;3.40;;
39522;SDS011;25202;51.216;6.806;2024-03-22T00:12:30;4.40;;;3.33;;
39522;SDS011;25202;51.216;6.806;2024-03-22T00:14:56;4.63;;;3.70;;
39522;SDS011;25202;51.216;6.806;2024-03-22T00:17:22;5.22;;;3.60;;
39522;SDS011;25202;51.216;6.806;2024-03-22T00:19:47;5.53;;;3.78;;
39522;SDS011;25202;51.216;6.806;2024-03-22T00:22:13;5.90;;;3.70;;
39522;SDS011;25202;51.216;6.806;2024-03-22T00:24:39;4.68;;;3.72;;
39522;SDS011;25202;51.216;6.806;2024-03-22T00:27:05;4.60;;;3.42;;
39522;SDS011;25202;51.216;6.806;2024-03-22T00:29:30;4.57;;;3.55;;
39522;SDS011;25202;51.216;6.806;2024-03-22T00:31:56;4.65;;;3.53;;
39522;SDS011;25202;51.216;6.806;2024-03-22T00:34:21;3.85;;;3.05;;
39522;SDS011;25202;51.216;6.806;2024-03-22T00:36:47;4.15;;;3.30;;
39522;SDS011;25202;51.216;6.806;2024-03-22T00:39:12;4.25;;;3.45;;
39522;SDS011;25202;51.216;6.806;2024-03-22T00:41:38;4.82;;;3.70;;
39522;SDS011;25202;51.216;6.806;2024-03-22T00:44:04;4.50;;;3.20;;
39522;SDS011;25202;51.216;6.806;2024-03-22T00:46:29;4.18;;;3.30;;
39522;SDS011;25202;51.216;6.806;2024-03-22T00:48:55;3.78;;;3.28;;
39522;SDS011;25202;51.216;6.806;2024-03-22T00:51:20;4.32;;;3.30;;
39522;SDS011;25202;51.216;6.806;2024-03-22T00:53:47;3.50;;;3.10;;
39522;SDS011;25202;51.216;6.806;2024-03-22T00:56:12;4.15;;;3.22;;
39522;SDS011;25202;51.216;6.806;2024-03-22T00:58:38;5.07;;;3.42;;
39522;SDS011;25202;51.216;6.806;2024-03-22T01:01:03;3.67;;;3.08;;
39522;SDS011;25202;51.216;6.806;2024-03-22T01:03:29;4.78;;;3.30;;
39522;SDS011;25202;51.216;6.806;2024-03-22T01:05:54;4.72;;;3.60;;
39522;SDS011;25202;51.216;6.806;2024-03-22T01:08:21;3.72;;;3.05;;
39522;SDS011;25202;51.216;6.806;2024-03-22T01:10:47;3.80;;;2.92;;
39522;SDS011;25202;51.216;6.806;2024-03-22T01:13:12;3.45;;;2.78;;
39522;SDS011;25202;51.216;6.806;2024-03-22T01:15:38;4.00;;;3.35;;
39522;SDS011;25202;51.216;6.806;2024-03-22T01:18:04;4.43;;;3.08;;
39522;SDS011;25202;51.216;6.806;2024-03-22T01:20:29;3.92;;;3.22;;
39522;SDS011;25202;51.216;6.806;2024-03-22T01:22:55;4.45;;;3.40;;
39522;SDS011;25202;51.216;6.806;2024-03-22T01:25:20;3.90;;;3.13;;
39522;SDS011;25202;51.216;6.806;2024-03-22T01:27:46;4.75;;;3.45;;
39522;SDS011;25202;51.216;6.806;2024-03-22T01:30:11;4.53;;;3.50;;
39522;SDS011;25202;51.216;6.806;2024-03-22T01:32:37;5.07;;;3.60;;
39522;SDS011;25202;51.216;6.806;2024-03-22T01:35:02;4.10;;;3.35;;
39522;SDS011;25202;51.216;6.806;2024-03-22T01:37:29;4.50;;;3.75;;
39522;SDS011;25202;51.216;6.806;2024-03-22T01:39:54;4.65;;;3.28;;
39522;SDS011;25202;51.216;6.806;2024-03-22T01:42:20;3.95;;;3.30;;
39522;SDS011;25202;51.216;6.806;2024-03-22T01:44:45;3.75;;;3.28;;
39522;SDS011;25202;51.216;6.806;2024-03-22T01:47:11;4.07;;;3.47;;
39522;SDS011;25202;51.216;6.806;2024-03-22T01:49:36;5.22;;;3.72;;
39522;SDS011;25202;51.216;6.806;2024-03-22T01:52:02;3.85;;;3.40;;
39522;SDS011;25202;51.216;6.806;2024-03-22T01:54:28;4.88;;;3.90;;
39522;SDS011;25202;51.216;6.806;2024-03-22T01:56:55;5.05;;;3.80;;
39522;SDS011;25202;51.216;6.806;2024-03-22T01:59:20;5.60;;;4.32;;
39522;SDS011;25202;51.216;6.806;2024-03-22T02:01:46;5.53;;;3.85;;
39522;SDS011;25202;51.216;6.806;2024-03-22T02:04:12;5.57;;;4.28;;
39522;SDS011;25202;51.216;6.806;2024-03-22T02:06:37;5.38;;;3.97;;
39522;SDS011;25202;51.216;6.806;2024-03-22T02:09:03;4.95;;;3.80;;
39522;SDS011;25202;51.216;6.806;2024-03-22T02:11:29;5.50;;;4.00;;
39522;SDS011;25202;51.216;6.806;2024-03-22T02:13:55;5.88;;;4.18;;
39522;SDS011;25202;51.216;6.806;2024-03-22T02:16:21;6.47;;;4.57;;
39522;SDS011;25202;51.216;6.806;2024-03-22T02:18:46;4.60;;;3.88;;
39522;SDS011;25202;51.216;6.806;2024-03-22T02:21:12;5.53;;;4.03;;
39522;SDS011;25202;51.216;6.806;2024-03-22T02:23:38;5.50;;;4.30;;
39522;SDS011;25202;51.216;6.806;2024-03-22T02:26:04;5.93;;;4.07;;
39522;SDS011;25202;51.216;6.806;2024-03-22T02:28:31;5.82;;;4.40;;
39522;SDS011;25202;51.216;6.806;2024-03-22T02:31:00;5.07;;;4.10;;
39522;SDS011;25202;51.216;6.806;2024-03-22T02:33:25;5.28;;;4.18;;
39522;SDS011;25202;51.216;6.806;2024-03-22T02:35:51;6.28;;;4.15;;
39522;SDS011;25202;51.216;6.806;2024-03-22T02:38:16;5.38;;;3.95;;
39522;SDS011;25202;51.216;6.806;2024-03-22T02:40:46;5.53;;;4.18;;
39522;SDS011;25202;51.216;6.806;2024-03-22T02:43:14;4.90;;;3.53;;
39522;SDS011;25202;51.216;6.806;2024-03-22T02:45:39;5.88;;;3.58;;
39522;SDS011;25202;51.216;6.806;2024-03-22T02:48:05;4.30;;;3.00;;
39522;SDS011;25202;51.216;6.806;2024-03-22T02:50:35;3.55;;;2.47;;
39522;SDS011;25202;51.216;6.806;2024-03-22T02:53:01;4.15;;;2.47;;
39522;SDS011;25202;51.216;6.806;2024-03-22T02:55:27;3.97;;;2.58;;
39522;SDS011;25202;51.216;6.806;2024-03-22T02:57:53;4.95;;;2.90;;
39522;SDS011;25202;51.216;6.806;2024-03-22T03:00:18;4.88;;;2.92;;
39522;SDS011;25202;51.216;6.806;2024-03-22T03:02:45;4.40;;;2.90;;
39522;SDS011;25202;51.216;6.806;2024-03-22T03:05:10;5.00;;;3.05;;
39522;SDS011;25202;51.216;6.806;2024-03-22T03:07:36;4.63;;;2.92;;
39522;SDS011;25202;51.216;6.806;2024-03-22T03:10:02;3.67;;;2.90;;
39522;SDS011;25202;51.216;6.806;2024-03-22T03:12:27;5.40;;;3.50;;
39522;SDS011;25202;51.216;6.806;2024-03-22T03:14:52;4.03;;;2.88;;
39522;SDS011;25202;51.216;6.806;2024-03-22T03:17:18;4.47;;;3.20;;
39522;SDS011;25202;51.216;6.806;2024-03-22T03:19:44;4.53;;;3.10;;
39522;SDS011;25202;51.216;6.806;2024-03-22T03:22:10;4.70;;;3.20;;
39522;SDS011;25202;51.216;6.806;2024-03-22T03:24:35;4.47;;;3.00;;
39522;SDS011;25202;51.216;6.806;2024-03-22T03:27:01;4.40;;;3.00;;
39522;SDS011;25202;51.216;6.806;2024-03-22T03:29:27;5.68;;;3.70;;
39522;SDS011;25202;51.216;6.806;2024-03-22T03:31:53;4.20;;;3.22;;
39522;SDS011;25202;51.216;6.806;2024-03-22T03:34:18;4.45;;;3.17;;
39522;SDS011;25202;51.216;6.806;2024-03-22T03:36:45;5.43;;;3.65;;
39522;SDS011;25202;51.216;6.806;2024-03-22T03:39:11;5.13;;;3.40;;
39522;SDS011;25202;51.216;6.806;2024-03-22T03:41:37;4.72;;;3.28;;
39522;SDS011;25202;51.216;6.806;2024-03-22T03:44:02;4.55;;;3.28;;
39522;SDS011;25202;51.216;6.806;2024-03-22T03:46:28;4.75;;;3.50;;
39522;SDS011;25202;51.216;6.806;2024-03-22T03:48:53;4.72;;;3.10;;
39522;SDS011;25202;51.216;6.806;2024-03-22T03:51:18;4.30;;;2.80;;
39522;SDS011;25202;51.216;6.806;2024-03-22T03:53:44;4.30;;;3.30;;
39522;SDS011;25202;51.216;6.806;2024-03-22T03:56:10;5.05;;;3.25;;
39522;SDS011;25202;51.216;6.806;2024-03-22T03:58:35;6.28;;;3.58;;
39522;SDS011;25202;51.216;6.806;2024-03-22T04:01:07;5.70;;;3.70;;
39522;SDS011;25202;51.216;6.806;2024-03-22T04:03:33;6.50;;;4.30;;
39522;SDS011;25202;51.216;6.806;2024-03-22T04:05:59;5.72;;;3.75;;
39522;SDS011;25202;51.216;6.806;2024-03-22T04:08:25;5.53;;;3.83;;
39522;SDS011;25202;51.216;6.806;2024-03-22T04:10:52;5.90;;;3.67;;
39522;SDS011;25202;51.216;6.806;2024-03-22T04:13:18;5.35;;;3.60;;
39522;SDS011;25202;51.216;6.806;2024-03-22T04:15:43;5.97;;;4.18;;
39522;SDS011;25202;51.216;6.806;2024-03-22T04:18:09;4.97;;;3.63;;
39522;SDS011;25202;51.216;6.806;2024-03-22T04:20:35;6.28;;;4.38;;
39522;SDS011;25202;51.216;6.806;2024-03-22T04:23:00;5.90;;;3.67;;
39522;SDS011;25202;51.216;6.806;2024-03-22T04:25:26;4.88;;;3.58;;
39522;SDS011;25202;51.216;6.806;2024-03-22T04:27:51;5.85;;;3.85;;
39522;SDS011;25202;51.216;6.806;2024-03-22T04:30:17;5.75;;;4.00;;
39522;SDS011;25202;51.216;6.806;2024-03-22T04:32:42;6.75;;;4.13;;
39522;SDS011;25202;51.216;6.806;2024-03-22T04:35:11;5.43;;;3.85;;
39522;SDS011;25202;51.216;6.806;2024-03-22T04:37:36;5.60;;;3.75;;
39522;SDS011;25202;51.216;6.806;2024-03-22T04:40:02;5.72;;;3.95;;
39522;SDS011;25202;51.216;6.806;2024-03-22T04:42:28;5.82;;;3.90;;
39522;SDS011;25202;51.216;6.806;2024-03-22T04:44:53;6.05;;;3.90;;
39522;SDS011;25202;51.216;6.806;2024-03-22T04:47:19;6.20;;;3.80;;
39522;SDS011;25202;51.216;6.806;2024-03-22T04:49:45;5.40;;;3.90;;
39522;SDS011;25202;51.216;6.806;2024-03-22T04:52:11;5.90;;;4.05;;
39522;SDS011;25202;51.216;6.806;2024-03-22T04:54:36;5.32;;;3.70;;
39522;SDS011;25202;51.216;6.806;2024-03-22T04:57:02;7.03;;;4.40;;
39522;SDS011;25202;51.216;6.806;2024-03-22T04:59:27;5.10;;;3.70;;
39522;SDS011;25202;51.216;6.806;2024-03-22T05:01:53;4.72;;;3.53;;
39522;SDS011;25202;51.216;6.806;2024-03-22T05:04:18;7.30;;;4.35;;
39522;SDS011;25202;51.216;6.806;2024-03-22T05:06:44;7.32;;;4.25;;
39522;SDS011;25202;51.216;6.806;2024-03-22T05:09:09;6.50;;;3.88;;
39522;SDS011;25202;51.216;6.806;2024-03-22T05:11:36;6.82;;;3.55;;
39522;SDS011;25202;51.216;6.806;2024-03-22T05:14:01;7.53;;;3.72;;
39522;SDS011;25202;51.216;6.806;2024-03-22T05:16:27;6.80;;;4.30;;
39522;SDS011;25202;51.216;6.806;2024-03-22T05:18:52;6.00;;;4.10;;
39522;SDS011;25202;51.216;6.806;2024-03-22T05:21:17;6.85;;;4.15;;
39522;SDS011;25202;51.216;6.806;2024-03-22T05:23:43;5.28;;;3.45;;
39522;SDS011;25202;51.216;6.806;2024-03-22T05:26:09;6.57;;;3.50;;
39522;SDS011;25202;51.216;6.806;2024-03-22T05:28:35;6.45;;;3.80;;
39522;SDS011;25202;51.216;6.806;2024-03-22T05:31:00;5.75;;;3.60;;
39522;SDS011;25202;51.216;6.806;2024-03-22T05:33:26;6.15;;;3.72;;
39522;SDS011;25202;51.216;6.806;2024-03-22T05:35:52;5.88;;;4.22;;
39522;SDS011;25202;51.216;6.806;2024-03-22T05:38:18;6.25;;;4.15;;
39522;SDS011;25202;51.216;6.806;2024-03-22T05:40:43;7.15;;;3.80;;
39522;SDS011;25202;51.216;6.806;2024-03-22T05:43:11;5.45;;;3.47;;
39522;SDS011;25202;51.216;6.806;2024-03-22T05:45:37;6.13;;;3.55;;
39522;SDS011;25202;51.216;6.806;2024-03-22T05:48:03;5.15;;;3.72;;
39522;SDS011;25202;51.216;6.806;2024-03-22T05:50:29;6.10;;;3.40;;
39522;SDS011;25202;51.216;6.806;2024-03-22T05:52:54;6.60;;;3.50;;
39522;SDS011;25202;51.216;6.806;2024-03-22T05:55:20;6.18;;;3.65;;
39522;SDS011;25202;51.216;6.806;2024-03-22T05:57:45;6.10;;;3.90;;
39522;SDS011;25202;51.216;6.806;2024-03-22T06:00:11;7.07;;;3.72;;
39522;SDS011;25202;51.216;6.806;2024-03-22T06:02:38;5.97;;;4.10;;
39522;SDS011;25202;51.216;6.806;2024-03-22T06:05:04;6.10;;;3.65;;
39522;SDS011;25202;51.216;6.806;2024-03-22T06:07:30;5.93;;;3.70;;
39522;SDS011;25202;51.216;6.806;2024-03-22T06:10:00;5.85;;;3.72;;
39522;SDS011;25202;51.216;6.806;2024-03-22T06:12:26;5.90;;;3.35;;
39522;SDS011;25202;51.216;6.806;2024-03-22T06:14:51;5.80;;;3.70;;
39522;SDS011;25202;51.216;6.806;2024-03-22T06:17:17;7.15;;;3.47;;
39522;SDS011;25202;51.216;6.806;2024-03-22T06:19:42;5.32;;;3.63;;
39522;SDS011;25202;51.216;6.806;2024-03-22T06:22:08;5.63;;;3.58;;
39522;SDS011;25202;51.216;6.806;2024-03-22T06:24:33;5.40;;;3.40;;
39522;SDS011;25202;51.216;6.806;2024-03-22T06:26:59;6.78;;;3.45;;
39522;SDS011;25202;51.216;6.806;2024-03-22T06:29:25;4.55;;;3.50;;
39522;SDS011;25202;51.216;6.806;2024-03-22T06:31:51;6.00;;;3.65;;
39522;SDS011;25202;51.216;6.806;2024-03-22T06:34:17;5.68;;;3.50;;
39522;SDS011;25202;51.216;6.806;2024-03-22T06:36:43;5.75;;;3.20;;
39522;SDS011;25202;51.216;6.806;2024-03-22T06:39:08;5.13;;;3.17;;
39522;SDS011;25202;51.216;6.806;2024-03-22T06:41:35;5.35;;;3.30;;
39522;SDS011;25202;51.216;6.806;2024-03-22T06:44:00;4.38;;;3.00;;
39522;SDS011;25202;51.216;6.806;2024-03-22T06:46:26;4.93;;;3.30;;
39522;SDS011;25202;51.216;6.806;2024-03-22T06:48:52;5.80;;;2.92;;
39522;SDS011;25202;51.216;6.806;2024-03-22T06:51:18;5.68;;;3.40;;
39522;SDS011;25202;51.216;6.806;2024-03-22T06:53:43;6.43;;;3.30;;
39522;SDS011;25202;51.216;6.806;2024-03-22T06:56:10;4.78;;;3.08;;
39522;SDS011;25202;51.216;6.806;2024-03-22T06:58:37;5.25;;;2.90;;
39522;SDS011;25202;51.216;6.806;2024-03-22T07:01:03;4.30;;;3.00;;
39522;SDS011;25202;51.216;6.806;2024-03-22T07:03:29;5.93;;;3.10;;
39522;SDS011;25202;51.216;6.806;2024-03-22T07:05:55;5.13;;;3.05;;
39522;SDS011;25202;51.216;6.806;2024-03-22T07:08:20;4.78;;;3.13;;
39522;SDS011;25202;51.216;6.806;2024-03-22T07:10:46;4.35;;;2.67;;
39522;SDS011;25202;51.216;6.806;2024-03-22T07:13:11;4.65;;;3.03;;
39522;SDS011;25202;51.216;6.806;2024-03-22T07:15:37;4.82;;;2.85;;
39522;SDS011;25202;51.216;6.806;2024-03-22T07:18:03;4.60;;;3.10;;
39522;SDS011;25202;51.216;6.806;2024-03-22T07:20:30;4.55;;;2.72;;
39522;SDS011;25202;51.216;6.806;2024-03-22T07:22:55;3.65;;;2.30;;
39522;SDS011;25202;51.216;6.806;2024-03-22T07:25:21;5.35;;;3.03;;
39522;SDS011;25202;51.216;6.806;2024-03-22T07:27:46;4.60;;;2.95;;
39522;SDS011;25202;51.216;6.806;2024-03-22T07:30:14;5.40;;;2.83;;
39522;SDS011;25202;51.216;6.806;2024-03-22T07:32:39;5.18;;;2.70;;
39522;SDS011;25202;51.216;6.806;2024-03-22T07:35:05;4.30;;;2.72;;
39522;SDS011;25202;51.216;6.806;2024-03-22T07:37:32;5.97;;;2.90;;
39522;SDS011;25202;51.216;6.806;2024-03-22T07:39:58;5.50;;;2.65;;
39522;SDS011;25202;51.216;6.806;2024-03-22T07:42:23;3.60;;;2.60;;
39522;SDS011;25202;51.216;6.806;2024-03-22T07:44:49;3.67;;;2.33;;
39522;SDS011;25202;51.216;6.806;2024-03-22T07:47:14;4.80;;;2.70;;
39522;SDS011;25202;51.216;6.806;2024-03-22T07:49:40;4.57;;;2.47;;
39522;SDS011;25202;51.216;6.806;2024-03-22T07:52:05;5.65;;;2.53;;
39522;SDS011;25202;51.216;6.806;2024-03-22T07:54:31;3.80;;;2.67;;
39522;SDS011;25202;51.216;6.806;2024-03-22T07:56:57;3.83;;;2.38;;
39522;SDS011;25202;51.216;6.806;2024-03-22T07:59:22;4.13;;;2.72;;
39522;SDS011;25202;51.216;6.806;2024-03-22T08:01:48;4.45;;;2.47;;
39522;SDS011;25202;51.216;6.806;2024-03-22T08:04:13;6.22;;;2.85;;
39522;SDS011;25202;51.216;6.806;2024-03-22T08:06:39;5.45;;;3.10;;
39522;SDS011;25202;51.216;6.806;2024-03-22T08:09:05;8.73;;;3.30;;
39522;SDS011;25202;51.216;6.806;2024-03-22T08:11:30;8.45;;;3.08;;
39522;SDS011;25202;51.216;6.806;2024-03-22T08:13:56;105.90;;;17.67;;
39522;SDS011;25202;51.216;6.806;2024-03-22T08:16:27;112.43;;;20.65;;
39522;SDS011;25202;51.216;6.806;2024-03-22T08:18:53;109.53;;;25.65;;
39522;SDS011;25202;51.216;6.806;2024-03-22T08:21:19;243.20;;;68.55;;
39522;SDS011;25202;51.216;6.806;2024-03-22T08:23:44;382.60;;;111.65;;
39522;SDS011;25202;51.216;6.806;2024-03-22T08:26:10;357.00;;;100.03;;
39522;SDS011;25202;51.216;6.806;2024-03-22T08:28:35;355.65;;;101.07;;
39522;SDS011;25202;51.216;6.806;2024-03-22T08:31:04;334.00;;;92.78;;
39522;SDS011;25202;51.216;6.806;2024-03-22T08:33:30;299.88;;;85.30;;
39522;SDS011;25202;51.216;6.806;2024-03-22T08:35:56;240.45;;;68.93;;
39522;SDS011;25202;51.216;6.806;2024-03-22T08:38:21;212.85;;;59.80;;
39522;SDS011;25202;51.216;6.806;2024-03-22T08:40:47;207.32;;;55.13;;
39522;SDS011;25202;51.216;6.806;2024-03-22T08:43:13;193.27;;;51.67;;
39522;SDS011;25202;51.216;6.806;2024-03-22T08:45:39;171.05;;;46.65;;
39522;SDS011;25202;51.216;6.806;2024-03-22T08:48:04;168.00;;;44.17;;
39522;SDS011;25202;51.216;6.806;2024-03-22T08:50:30;158.60;;;40.58;;
39522;SDS011;25202;51.216;6.806;2024-03-22T08:52:56;133.77;;;37.22;;
39522;SDS011;25202;51.216;6.806;2024-03-22T08:55:21;136.23;;;36.70;;
39522;SDS011;25202;51.216;6.806;2024-03-22T08:57:47;138.05;;;35.90;;
39522;SDS011;25202;51.216;6.806;2024-03-22T09:00:13;121.03;;;34.50;;
39522;SDS011;25202;51.216;6.806;2024-03-22T09:02:38;137.82;;;40.05;;
39522;SDS011;25202;51.216;6.806;2024-03-22T09:05:04;155.48;;;39.00;;
39522;SDS011;25202;51.216;6.806;2024-03-22T09:07:30;166.38;;;51.40;;
39522;SDS011;25202;51.216;6.806;2024-03-22T09:09:56;201.20;;;66.70;;
39522;SDS011;25202;51.216;6.806;2024-03-22T09:12:21;187.18;;;65.85;;
39522;SDS011;25202;51.216;6.806;2024-03-22T09:14:47;173.73;;;62.20;;
39522;SDS011;25202;51.216;6.806;2024-03-22T09:17:12;171.85;;;58.95;;
39522;SDS011;25202;51.216;6.806;2024-03-22T09:19:38;156.05;;;53.40;;
39522;SDS011;25202;51.216;6.806;2024-03-22T09:22:04;144.68;;;49.63;;
39522;SDS011;25202;51.216;6.806;2024-03-22T09:24:29;134.93;;;43.83;;
39522;SDS011;25202;51.216;6.806;2024-03-22T09:26:55;119.80;;;40.08;;
39522;SDS011;25202;51.216;6.806;2024-03-22T09:29:20;128.10;;;37.67;;
39522;SDS011;25202;51.216;6.806;2024-03-22T09:31:46;115.10;;;36.55;;
39522;SDS011;25202;51.216;6.806;2024-03-22T09:34:12;101.93;;;34.13;;
39522;SDS011;25202;51.216;6.806;2024-03-22T09:36:37;106.57;;;34.05;;
39522;SDS011;25202;51.216;6.806;2024-03-22T09:39:03;130.77;;;39.03;;
39522;SDS011;25202;51.216;6.806;2024-03-22T09:41:29;216.10;;;62.28;;
39522;SDS011;25202;51.216;6.806;2024-03-22T09:43:57;249.48;;;70.72;;
39522;SDS011;25202;51.216;6.806;2024-03-22T09:46:23;494.17;;;169.30;;
39522;SDS011;25202;51.216;6.806;2024-03-22T09:48:50;802.75;;;320.90;;
39522;SDS011;25202;51.216;6.806;2024-03-22T09:51:17;741.08;;;301.17;;
39522;SDS011;25202;51.216;6.806;2024-03-22T09:53:49;609.92;;;251.38;;
39522;SDS011;25202;51.216;6.806;2024-03-22T09:56:16;672.78;;;288.60;;
39522;SDS011;25202;51.216;6.806;2024-03-22T09:58:44;597.38;;;254.15;;
39522;SDS011;25202;51.216;6.806;2024-03-22T10:01:10;618.33;;;260.58;;
39522;SDS011;25202;51.216;6.806;2024-03-22T10:03:36;760.83;;;353.85;;
39522;SDS011;25202;51.216;6.806;2024-03-22T10:06:05;527.88;;;232.25;;
39522;SDS011;25202;51.216;6.806;2024-03-22T10:08:31;450.48;;;190.77;;
39522;SDS011;25202;51.216;6.806;2024-03-22T10:10:57;377.48;;;149.35;;
39522;SDS011;25202;51.216;6.806;2024-03-22T10:13:22;338.13;;;130.60;;
39522;SDS011;25202;51.216;6.806;2024-03-22T10:15:48;345.60;;;123.28;;
39522;SDS011;25202;51.216;6.806;2024-03-22T10:18:14;316.25;;;114.10;;
39522;SDS011;25202;51.216;6.806;2024-03-22T10:20:40;312.55;;;114.82;;
39522;SDS011;25202;51.216;6.806;2024-03-22T10:23:07;293.23;;;109.40;;
39522;SDS011;25202;51.216;6.806;2024-03-22T10:25:33;287.42;;;103.18;;
39522;SDS011;25202;51.216;6.806;2024-03-22T10:27:59;255.77;;;89.80;;
39522;SDS011;25202;51.216;6.806;2024-03-22T10:30:25;187.98;;;66.70;;
39522;SDS011;25202;51.216;6.806;2024-03-22T10:32:51;174.93;;;59.28;;
39522;SDS011;25202;51.216;6.806;2024-03-22T10:35:17;145.18;;;55.05;;
39522;SDS011;25202;51.216;6.806;2024-03-22T10:37:43;148.75;;;52.88;;
39522;SDS011;25202;51.216;6.806;2024-03-22T10:40:10;130.85;;;48.97;;
39522;SDS011;25202;51.216;6.806;2024-03-22T10:42:40;134.93;;;56.05;;
39522;SDS011;25202;51.216;6.806;2024-03-22T10:45:07;200.07;;;89.22;;
39522;SDS011;25202;51.216;6.806;2024-03-22T10:47:33;193.02;;;84.88;;
39522;SDS011;25202;51.216;6.806;2024-03-22T10:50:10;200.90;;;77.97;;
39522;SDS011;25202;51.216;6.806;2024-03-22T10:52:40;188.85;;;71.25;;
39522;SDS011;25202;51.216;6.806;2024-03-22T10:55:24;172.35;;;68.05;;
39522;SDS011;25202;51.216;6.806;2024-03-22T10:57:54;159.00;;;66.18;;
39522;SDS011;25202;51.216;6.806;2024-03-22T11:00:30;168.55;;;64.53;;
39522;SDS011;25202;51.216;6.806;2024-03-22T11:02:56;152.82;;;62.50;;
39522;SDS011;25202;51.216;6.806;2024-03-22T11:05:22;152.43;;;59.20;;
39522;SDS011;25202;51.216;6.806;2024-03-22T11:07:58;128.40;;;56.35;;
39522;SDS011;25202;51.216;6.806;2024-03-22T11:10:29;115.70;;;50.20;;
39522;SDS011;25202;51.216;6.806;2024-03-22T11:13:00;156.65;;;62.13;;
39522;SDS011;25202;51.216;6.806;2024-03-22T11:15:28;145.02;;;58.22;;
39522;SDS011;25202;51.216;6.806;2024-03-22T11:17:53;143.20;;;55.15;;
39522;SDS011;25202;51.216;6.806;2024-03-22T11:20:19;129.55;;;51.03;;
39522;SDS011;25202;51.216;6.806;2024-03-22T11:22:44;124.75;;;52.13;;
39522;SDS011;25202;51.216;6.806;2024-03-22T11:25:10;102.40;;;46.17;;
39522;SDS011;25202;51.216;6.806;2024-03-22T11:27:36;93.80;;;43.72;;
39522;SDS011;25202;51.216;6.806;2024-03-22T11:30:01;96.20;;;42.28;;
39522;SDS011;25202;51.216;6.806;2024-03-22T11:32:28;89.95;;;39.78;;
39522;SDS011;25202;51.216;6.806;2024-03-22T11:34:54;84.38;;;38.60;;
39522;SDS011;25202;51.216;6.806;2024-03-22T11:37:19;86.53;;;39.95;;
39522;SDS011;25202;51.216;6.806;2024-03-22T11:39:45;85.72;;;38.55;;
39522;SDS011;25202;51.216;6.806;2024-03-22T11:42:11;85.47;;;38.17;;
39522;SDS011;25202;51.216;6.806;2024-03-22T11:44:36;79.63;;;36.00;;
39522;SDS011;25202;51.216;6.806;2024-03-22T11:47:03;82.40;;;36.47;;
39522;SDS011;25202;51.216;6.806;2024-03-22T11:49:29;89.45;;;37.85;;
39522;SDS011;25202;51.216;6.806;2024-03-22T11:51:58;78.03;;;35.00;;
39522;SDS011;25202;51.216;6.806;2024-03-22T11:54:23;75.82;;;35.15;;
39522;SDS011;25202;51.216;6.806;2024-03-22T11:56:51;81.22;;;35.15;;
39522;SDS011;25202;51.216;6.806;2024-03-22T11:59:19;70.15;;;33.90;;
39522;SDS011;25202;51.216;6.806;2024-03-22T12:01:45;74.72;;;33.35;;
39522;SDS011;25202;51.216;6.806;2024-03-22T12:04:11;74.10;;;32.78;;
39522;SDS011;25202;51.216;6.806;2024-03-22T12:06:43;73.15;;;33.50;;
39522;SDS011;25202;51.216;6.806;2024-03-22T12:09:10;71.47;;;32.05;;
39522;SDS011;25202;51.216;6.806;2024-03-22T12:11:37;70.30;;;31.15;;
39522;SDS011;25202;51.216;6.806;2024-03-22T12:14:03;68.57;;;32.33;;
39522;SDS011;25202;51.216;6.806;2024-03-22T12:16:28;60.83;;;30.52;;
39522;SDS011;25202;51.216;6.806;2024-03-22T12:18:54;63.50;;;29.30;;
39522;SDS011;25202;51.216;6.806;2024-03-22T12:21:20;62.47;;;30.02;;
39522;SDS011;25202;51.216;6.806;2024-03-22T12:23:45;61.58;;;28.38;;
39522;SDS011;25202;51.216;6.806;2024-03-22T12:26:11;56.05;;;27.42;;
39522;SDS011;25202;51.216;6.806;2024-03-22T12:28:37;59.88;;;27.52;;
39522;SDS011;25202;51.216;6.806;2024-03-22T12:31:04;57.40;;;27.58;;
39522;SDS011;25202;51.216;6.806;2024-03-22T12:33:29;53.45;;;27.20;;
39522;SDS011;25202;51.216;6.806;2024-03-22T12:35:55;74.90;;;29.65;;
39522;SDS011;25202;51.216;6.806;2024-03-22T12:38:20;78.40;;;30.48;;
39522;SDS011;25202;51.216;6.806;2024-03-22T12:40:46;91.47;;;32.20;;
39522;SDS011;25202;51.216;6.806;2024-03-22T12:43:12;90.72;;;33.25;;
39522;SDS011;25202;51.216;6.806;2024-03-22T12:45:37;85.78;;;29.92;;
39522;SDS011;25202;51.216;6.806;2024-03-22T12:48:03;73.55;;;27.65;;
39522;SDS011;25202;51.216;6.806;2024-03-22T12:50:29;77.43;;;28.45;;
39522;SDS011;25202;51.216;6.806;2024-03-22T12:52:55;71.88;;;26.90;;
39522;SDS011;25202;51.216;6.806;2024-03-22T12:55:21;73.90;;;25.52;;
39522;SDS011;25202;51.216;6.806;2024-03-22T12:57:46;64.95;;;25.55;;
39522;SDS011;25202;51.216;6.806;2024-03-22T13:00:12;67.35;;;23.70;;
39522;SDS011;25202;51.216;6.806;2024-03-22T13:02:39;60.92;;;23.13;;
39522;SDS011;25202;51.216;6.806;2024-03-22T13:05:05;67.43;;;24.10;;
39522;SDS011;25202;51.216;6.806;2024-03-22T13:07:30;60.05;;;23.58;;
39522;SDS011;25202;51.216;6.806;2024-03-22T13:09:56;57.83;;;23.77;;
39522;SDS011;25202;51.216;6.806;2024-03-22T13:12:22;58.05;;;23.10;;
39522;SDS011;25202;51.216;6.806;2024-03-22T13:14:47;61.75;;;22.85;;
39522;SDS011;25202;51.216;6.806;2024-03-22T13:17:13;61.40;;;23.60;;
39522;SDS011;25202;51.216;6.806;2024-03-22T13:19:38;66.13;;;24.80;;
39522;SDS011;25202;51.216;6.806;2024-03-22T13:22:04;147.55;;;43.20;;
39522;SDS011;25202;51.216;6.806;2024-03-22T13:24:30;163.45;;;49.17;;
39522;SDS011;25202;51.216;6.806;2024-03-22T13:26:55;146.77;;;46.55;;
39522;SDS011;25202;51.216;6.806;2024-03-22T13:29:21;166.50;;;52.90;;
39522;SDS011;25202;51.216;6.806;2024-03-22T13:31:47;190.52;;;55.22;;
39522;SDS011;25202;51.216;6.806;2024-03-22T13:34:12;192.60;;;53.13;;
39522;SDS011;25202;51.216;6.806;2024-03-22T13:36:38;154.88;;;48.55;;
39522;SDS011;25202;51.216;6.806;2024-03-22T13:39:04;147.45;;;44.42;;
39522;SDS011;25202;51.216;6.806;2024-03-22T13:41:29;149.18;;;46.90;;
39522;SDS011;25202;51.216;6.806;2024-03-22T13:43:55;167.90;;;52.03;;
39522;SDS011;25202;51.216;6.806;2024-03-22T13:46:20;159.55;;;49.28;;
39522;SDS011;25202;51.216;6.806;2024-03-22T13:48:46;156.43;;;47.20;;
39522;SDS011;25202;51.216;6.806;2024-03-22T13:51:13;147.35;;;46.13;;
39522;SDS011;25202;51.216;6.806;2024-03-22T13:53:38;129.85;;;42.67;;
39522;SDS011;25202;51.216;6.806;2024-03-22T13:56:04;115.22;;;37.58;;
39522;SDS011;25202;51.216;6.806;2024-03-22T13:58:29;120.97;;;40.15;;
39522;SDS011;25202;51.216;6.806;2024-03-22T14:00:55;112.53;;;37.83;;
39522;SDS011;25202;51.216;6.806;2024-03-22T14:03:21;113.68;;;36.33;;
39522;SDS011;25202;51.216;6.806;2024-03-22T14:05:46;92.82;;;34.08;;
39522;SDS011;25202;51.216;6.806;2024-03-22T14:08:12;114.68;;;35.20;;
39522;SDS011;25202;51.216;6.806;2024-03-22T14:10:37;184.63;;;52.83;;
39522;SDS011;25202;51.216;6.806;2024-03-22T14:13:03;492.98;;;144.95;;
39522;SDS011;25202;51.216;6.806;2024-03-22T14:15:29;424.77;;;123.72;;
39522;SDS011;25202;51.216;6.806;2024-03-22T14:17:57;443.83;;;132.52;;
39522;SDS011;25202;51.216;6.806;2024-03-22T14:20:23;428.10;;;129.73;;
39522;SDS011;25202;51.216;6.806;2024-03-22T14:22:50;413.63;;;124.50;;